< < Back
Terminal Aerodrome Forecast


Current Version              Previous Versions:   1  2  3  4  5  6  7  8  9  

Terminal Aerodrome Forecast

628
FTUS42 KJAX 010500 RRA
TAFSSI
TAF
KSSI 010544Z 0106/0206 21004KT P6SM FEW015 SCT250
     FM011600 14008KT P6SM SCT030 SCT250
     FM020200 17006KT P6SM FEW030 BKN250=

Latest METAR

376
SAUS70 KWBC 020200 RRN
MTRSSI
METAR KSSI 020153Z AUTO 16005KT 10SM CLR 28/23 A3010 RMK AO2 SLP192
T02830233


USA.gov is the U.S. government's official web portal to all federal, state and local government web resources and services.